createdAt,value
2023-07-04T00:00:58.741Z,100634.25
2023-07-04T00:02:00.581Z,100636.78
2023-07-04T00:03:02.388Z,100632.28
2023-07-04T00:04:04.365Z,100622.41
2023-07-04T00:05:06.484Z,100615.25
2023-07-04T00:06:10.468Z,100626.75
2023-07-04T00:07:12.060Z,100625.88
2023-07-04T00:08:13.653Z,100621.41
2023-07-04T00:09:15.426Z,100625.91
2023-07-04T00:10:17.249Z,100624.13
2023-07-04T00:11:20.904Z,100623.34
2023-07-04T00:12:25.277Z,100622.50
2023-07-04T00:13:27.515Z,100619.91
2023-07-04T00:14:29.312Z,100625.31
2023-07-04T00:15:32.319Z,100626.22
2023-07-04T00:16:33.998Z,100615.47
2023-07-04T00:17:35.653Z,100614.44
2023-07-04T00:18:37.953Z,100616.16
2023-07-04T00:19:39.664Z,100615.25
2023-07-04T00:20:41.907Z,100609.91
2023-07-04T00:21:43.491Z,100607.25
2023-07-04T00:22:45.140Z,100608.13
2023-07-04T00:23:49.300Z,100608.16
2023-07-04T00:24:50.893Z,100612.50
2023-07-04T00:25:52.680Z,100609.88
2023-07-04T00:26:54.318Z,100606.28
2023-07-04T00:27:55.971Z,100604.75
2023-07-04T00:28:57.532Z,100606.47
2023-07-04T00:29:59.201Z,100608.22
2023-07-04T00:31:02.706Z,100605.56
2023-07-04T00:32:05.030Z,100609.88
2023-07-04T00:33:07.393Z,100609.75
2023-07-04T00:34:09.015Z,100604.25
2023-07-04T00:35:10.606Z,100606.94
2023-07-04T00:36:14.848Z,100611.25
2023-07-04T00:37:16.918Z,100614.03
2023-07-04T00:38:18.780Z,100605.97
2023-07-04T00:39:20.380Z,100604.44
2023-07-04T00:40:21.977Z,100603.34
2023-07-04T00:41:25.782Z,100601.47
2023-07-04T00:42:27.457Z,100604.94
2023-07-04T00:43:51.965Z,100606.56
2023-07-04T00:44:53.624Z,100602.13
2023-07-04T00:45:55.349Z,100603.81
2023-07-04T00:47:01.700Z,100598.38
2023-07-04T00:48:04.657Z,100602.81
2023-07-04T00:49:13.267Z,100599.19
2023-07-04T00:50:14.853Z,100602.69
2023-07-04T00:51:16.451Z,100597.72
2023-07-04T00:52:20.793Z,100602.94
2023-07-04T00:53:22.428Z,100596.88
2023-07-04T00:54:27.963Z,100596.88
2023-07-04T00:55:30.911Z,100602.06
2023-07-04T00:56:32.813Z,100598.78
2023-07-04T00:57:34.722Z,100604.19
2023-07-04T00:58:37.855Z,100604.34
2023-07-04T00:59:42.260Z,100606.88
2023-07-04T01:00:44.028Z,100599.50
2023-07-04T01:01:45.706Z,100602.81
2023-07-04T01:02:51.619Z,100595.47
2023-07-04T01:03:54.699Z,100603.38
2023-07-04T01:04:57.616Z,100595.31
2023-07-04T01:06:06.111Z,100597.00
2023-07-04T01:07:22.853Z,100596.09
2023-07-04T01:08:28.333Z,100600.75
2023-07-04T01:09:30.638Z,100598.44
2023-07-04T01:10:35.130Z,100599.25
2023-07-04T01:11:40.022Z,100597.22
2023-07-04T01:12:42.190Z,100598.00
2023-07-04T01:13:44.244Z,100596.13
2023-07-04T01:14:45.944Z,100600.44
2023-07-04T01:15:47.655Z,100600.28
2023-07-04T01:16:49.549Z,100600.19
2023-07-04T01:17:53.734Z,100595.72
2023-07-04T01:18:58.262Z,100597.00
2023-07-04T01:20:01.651Z,100599.78
2023-07-04T01:21:07.271Z,100595.25
2023-07-04T01:22:19.895Z,100597.69
2023-07-04T01:23:27.529Z,100607.34
2023-07-04T01:24:36.204Z,100598.59
2023-07-04T01:25:45.556Z,100601.34
2023-07-04T01:26:49.489Z,100598.56
2023-07-04T01:27:53.638Z,100598.53
2023-07-04T01:28:55.498Z,100595.09
2023-07-04T01:29:59.819Z,100591.50
2023-07-04T01:31:03.472Z,100593.63
2023-07-04T01:32:07.825Z,100589.75
2023-07-04T01:33:10.548Z,100596.78
2023-07-04T01:34:14.253Z,100588.56
2023-07-04T01:35:16.124Z,100589.44
2023-07-04T01:36:19.910Z,100593.19
2023-07-04T01:37:21.475Z,100588.75
2023-07-04T01:38:23.087Z,100586.13
2023-07-04T01:39:24.912Z,100594.91
2023-07-04T01:40:26.744Z,100601.19
2023-07-04T01:41:28.811Z,100590.75
2023-07-04T01:42:31.757Z,100591.59
2023-07-04T01:43:33.493Z,100600.38
2023-07-04T01:44:35.120Z,100603.59
2023-07-04T01:45:36.752Z,100605.09
2023-07-04T01:46:38.375Z,100595.84
2023-07-04T01:47:40.533Z,100604.13
2023-07-04T01:48:42.218Z,100601.25
2023-07-04T01:49:43.829Z,100601.91
2023-07-04T01:50:45.488Z,100602.94
2023-07-04T01:51:47.495Z,100592.16
2023-07-04T01:52:49.546Z,100605.09
2023-07-04T01:53:51.169Z,100597.53
2023-07-04T01:54:52.910Z,100603.56
2023-07-04T01:55:54.525Z,100599.75
2023-07-04T01:56:56.526Z,100604.91
2023-07-04T01:57:59.516Z,100595.25
2023-07-04T01:59:01.217Z,100594.34
2023-07-04T02:00:02.926Z,100608.59
2023-07-04T02:01:04.613Z,100594.94
2023-07-04T02:02:06.923Z,100603.75
2023-07-04T02:03:08.631Z,100601.81
2023-07-04T02:04:10.345Z,100608.69
2023-07-04T02:05:12.164Z,100608.59
2023-07-04T02:06:15.358Z,100608.38
2023-07-04T02:07:17.800Z,100610.22
2023-07-04T02:08:19.447Z,100608.59
2023-07-04T02:09:21.178Z,100608.63
2023-07-04T02:10:23.069Z,100607.72
2023-07-04T02:11:24.660Z,100602.88
2023-07-04T02:12:26.552Z,100607.34
2023-07-04T02:13:29.515Z,100605.16
2023-07-04T02:14:31.175Z,100610.59
2023-07-04T02:15:32.835Z,100603.06
2023-07-04T02:16:34.675Z,100621.13
2023-07-04T02:17:36.867Z,100609.81
2023-07-04T02:18:38.620Z,100612.38
2023-07-04T02:19:40.252Z,100617.72
2023-07-04T02:20:41.903Z,100607.63
2023-07-04T02:21:43.513Z,100609.28
2023-07-04T02:22:45.091Z,100608.84
2023-07-04T02:23:46.671Z,100615.63
2023-07-04T02:24:48.268Z,100614.88
2023-07-04T02:25:49.904Z,100605.84
2023-07-04T02:26:51.588Z,100611.34
2023-07-04T02:27:53.270Z,100596.28
2023-07-04T02:28:57.496Z,100612.38
2023-07-04T02:29:59.096Z,100614.94
2023-07-04T02:31:00.963Z,100624.22
2023-07-04T02:32:03.108Z,100611.72
2023-07-04T02:33:05.725Z,100608.91
2023-07-04T02:34:07.480Z,100618.94
2023-07-04T02:35:09.670Z,100611.88
2023-07-04T02:36:14.548Z,100617.16
2023-07-04T02:37:16.121Z,100610.84
2023-07-04T02:38:18.207Z,100609.16
2023-07-04T02:39:20.122Z,100615.31
2023-07-04T02:40:21.884Z,100612.38
2023-07-04T02:41:23.940Z,100612.72
2023-07-04T02:42:27.926Z,100611.75
2023-07-04T02:43:31.173Z,100613.63
2023-07-04T02:44:34.630Z,100609.34
2023-07-04T02:45:39.652Z,100610.88
2023-07-04T02:46:44.011Z,100611.97
2023-07-04T02:47:48.325Z,100617.19
2023-07-04T02:48:54.834Z,100611.84
2023-07-04T02:49:56.658Z,100606.72
2023-07-04T02:50:59.281Z,100615.56
2023-07-04T02:52:00.947Z,100613.19
2023-07-04T02:53:03.260Z,100617.47
2023-07-04T02:54:05.208Z,100609.31
2023-07-04T02:55:08.994Z,100620.31
2023-07-04T02:56:11.829Z,100624.03
2023-07-04T02:57:16.488Z,100620.44
2023-07-04T02:58:20.109Z,100624.00
2023-07-04T02:59:21.778Z,100615.94
2023-07-04T03:00:24.741Z,100624.91
2023-07-04T03:01:27.009Z,100622.22
2023-07-04T03:02:29.368Z,100619.53
2023-07-04T03:03:33.664Z,100626.69
2023-07-04T03:04:38.832Z,100627.63
2023-07-04T03:05:40.743Z,100628.34
2023-07-04T03:06:43.494Z,100623.22
2023-07-04T03:07:47.308Z,100624.03
2023-07-04T03:08:51.506Z,100639.16
2023-07-04T03:09:54.625Z,100627.56
2023-07-04T03:10:59.526Z,100638.16
2023-07-04T03:12:03.372Z,100625.78
2023-07-04T03:13:05.319Z,100626.78
2023-07-04T03:14:10.560Z,100624.00
2023-07-04T03:15:12.765Z,100631.06
2023-07-04T03:16:21.202Z,100634.69
2023-07-04T03:17:23.587Z,100632.00
2023-07-04T03:18:25.218Z,100636.56
2023-07-04T03:19:27.476Z,100641.91
2023-07-04T03:20:30.406Z,100647.22
2023-07-04T03:21:32.084Z,100633.91
2023-07-04T03:22:36.028Z,100636.53
2023-07-04T03:23:38.766Z,100636.38
2023-07-04T03:24:43.182Z,100641.06
2023-07-04T03:25:45.214Z,100635.81
2023-07-04T03:26:48.633Z,100642.94
2023-07-04T03:27:52.712Z,100644.72
2023-07-04T03:28:58.725Z,100644.69
2023-07-04T03:30:00.503Z,100642.03
2023-07-04T03:31:03.212Z,100639.41
2023-07-04T03:32:08.607Z,100635.91
2023-07-04T03:33:10.732Z,100641.25
2023-07-04T03:34:12.553Z,100631.44
2023-07-04T03:35:14.897Z,100644.81
2023-07-04T03:36:18.856Z,100640.13
2023-07-04T03:37:20.465Z,100638.53
2023-07-04T03:38:22.091Z,100643.88
2023-07-04T03:39:23.901Z,100645.34
2023-07-04T03:40:25.594Z,100640.25
2023-07-04T03:41:27.353Z,100646.44
2023-07-04T03:42:29.047Z,100643.97
2023-07-04T03:43:30.710Z,100645.78
2023-07-04T03:44:32.472Z,100645.72
2023-07-04T03:45:34.098Z,100654.78
2023-07-04T03:46:35.766Z,100647.34
2023-07-04T03:47:38.886Z,100649.22
2023-07-04T03:48:40.848Z,100650.97
2023-07-04T03:49:42.803Z,100645.63
2023-07-04T03:50:45.985Z,100651.13
2023-07-04T03:51:48.042Z,100643.91
2023-07-04T03:52:50.129Z,100653.78
2023-07-04T03:53:51.732Z,100643.72
2023-07-04T03:54:54.448Z,100659.03
2023-07-04T03:55:56.148Z,100645.78
2023-07-04T03:56:57.942Z,100649.47
2023-07-04T03:57:59.590Z,100644.13
2023-07-04T03:59:01.186Z,100644.13
2023-07-04T04:00:03.157Z,100654.72
2023-07-04T04:01:25.116Z,100665.41
2023-07-04T04:02:26.729Z,100656.56
2023-07-04T04:03:29.960Z,100661.13
2023-07-04T04:04:32.046Z,100654.78
2023-07-04T04:05:33.798Z,100661.09
2023-07-04T04:06:35.470Z,100660.97
2023-07-04T04:07:37.195Z,100667.22
2023-07-04T04:08:38.803Z,100671.56
2023-07-04T04:09:40.494Z,100670.84
2023-07-04T04:10:42.289Z,100673.63
2023-07-04T04:11:43.893Z,100666.31
2023-07-04T04:12:45.718Z,100673.59
2023-07-04T04:13:47.549Z,100675.44
2023-07-04T04:14:50.789Z,100678.91
2023-07-04T04:15:52.541Z,100678.91
2023-07-04T04:16:54.276Z,100684.25
2023-07-04T04:17:56.257Z,100681.47
2023-07-04T04:18:59.203Z,100684.84
2023-07-04T04:20:00.989Z,100682.28
2023-07-04T04:21:02.733Z,100685.13
2023-07-04T04:22:05.099Z,100686.75
2023-07-04T04:23:07.464Z,100688.25
2023-07-04T04:24:09.109Z,100693.63
2023-07-04T04:25:10.798Z,100696.50
2023-07-04T04:26:12.424Z,100689.31
2023-07-04T04:27:14.012Z,100688.34
2023-07-04T04:28:15.891Z,100688.38
2023-07-04T04:29:18.268Z,100696.44
2023-07-04T04:30:21.819Z,100698.41
2023-07-04T04:31:23.578Z,100698.34
2023-07-04T04:32:25.384Z,100704.72
2023-07-04T04:33:27.011Z,100700.28
2023-07-04T04:34:30.105Z,100701.09
2023-07-04T04:35:32.262Z,100699.16
2023-07-04T04:36:34.846Z,100702.78
2023-07-04T04:37:36.606Z,100700.97
2023-07-04T04:38:38.175Z,100702.75
2023-07-04T04:39:39.872Z,100701.94
2023-07-04T04:40:41.602Z,100701.06
2023-07-04T04:41:43.246Z,100693.06
2023-07-04T04:42:45.216Z,100705.41
2023-07-04T04:43:47.035Z,100697.34
2023-07-04T04:44:48.885Z,100699.16
2023-07-04T04:45:50.569Z,100700.72
2023-07-04T04:46:52.279Z,100701.66
2023-07-04T04:47:54.467Z,100717.72
2023-07-04T04:48:56.233Z,100707.06
2023-07-04T04:49:59.250Z,100715.28
2023-07-04T04:51:04.999Z,100707.22
2023-07-04T04:52:06.896Z,100711.69
2023-07-04T04:53:08.480Z,100706.09
2023-07-04T04:54:10.095Z,100711.59
2023-07-04T04:55:11.867Z,100711.53
2023-07-04T04:56:13.594Z,100717.00
2023-07-04T04:57:15.292Z,100714.34
2023-07-04T04:58:16.859Z,100716.81
2023-07-04T04:59:18.515Z,100723.25
2023-07-04T05:00:21.065Z,100720.44
2023-07-04T05:01:25.334Z,100722.06
2023-07-04T05:02:29.912Z,100721.28
2023-07-04T05:03:31.660Z,100722.09
2023-07-04T05:04:33.373Z,100721.84
2023-07-04T05:05:36.464Z,100730.84
2023-07-04T05:06:38.240Z,100716.00
2023-07-04T05:07:39.812Z,100724.00
2023-07-04T05:08:41.410Z,100722.06
2023-07-04T05:09:43.026Z,100736.03
2023-07-04T05:10:44.634Z,100730.09
2023-07-04T05:11:46.222Z,100738.25
2023-07-04T05:12:47.843Z,100743.28
2023-07-04T05:13:51.804Z,100737.94
2023-07-04T05:14:53.498Z,100739.75
2023-07-04T05:15:59.312Z,100745.72
2023-07-04T05:17:00.913Z,100749.38
2023-07-04T05:18:02.573Z,100738.69
2023-07-04T05:19:04.308Z,100751.94
2023-07-04T05:20:07.335Z,100744.88
2023-07-04T05:21:12.665Z,100751.16
2023-07-04T05:22:14.349Z,100744.03
2023-07-04T05:23:15.963Z,100751.16
2023-07-04T05:24:17.555Z,100752.94
2023-07-04T05:25:19.904Z,100747.41
2023-07-04T05:26:24.518Z,100760.06
2023-07-04T05:27:26.022Z,100748.41
2023-07-04T05:28:27.679Z,100760.69
2023-07-04T05:29:29.571Z,100752.44
2023-07-04T05:30:31.290Z,100763.41
2023-07-04T05:31:32.957Z,100756.25
2023-07-04T05:32:34.741Z,100758.91
2023-07-04T05:33:37.559Z,100750.84
2023-07-04T05:34:39.177Z,100754.44
2023-07-04T05:35:40.780Z,100753.50
2023-07-04T05:36:43.717Z,100761.56
2023-07-04T05:37:45.353Z,100757.84
2023-07-04T05:38:48.798Z,100765.97
2023-07-04T05:39:51.403Z,100758.88
2023-07-04T05:40:53.222Z,100760.53
2023-07-04T05:41:55.199Z,100763.13
2023-07-04T05:42:56.998Z,100762.16
2023-07-04T05:44:00.507Z,100770.06
2023-07-04T05:45:02.244Z,100768.91
2023-07-04T05:46:04.836Z,100757.56
2023-07-04T05:47:07.350Z,100768.88
2023-07-04T05:48:08.963Z,100766.47
2023-07-04T05:49:10.578Z,100763.94
2023-07-04T05:50:12.219Z,100761.13
2023-07-04T05:51:15.703Z,100772.59
2023-07-04T05:52:18.665Z,100770.00
2023-07-04T05:53:23.056Z,100768.28
2023-07-04T05:54:24.656Z,100764.66
2023-07-04T05:55:26.230Z,100770.84
2023-07-04T05:56:31.005Z,100770.78
2023-07-04T05:57:33.246Z,100780.34
2023-07-04T05:58:35.362Z,100779.66
2023-07-04T05:59:39.152Z,100781.56
2023-07-04T06:00:40.574Z,100770.84
2023-07-04T06:01:44.024Z,100780.53
2023-07-04T06:02:49.400Z,100772.13
2023-07-04T06:03:51.833Z,100767.88
2023-07-04T06:04:53.646Z,100774.84
2023-07-04T06:05:55.445Z,100787.47
2023-07-04T06:06:57.161Z,100783.72
2023-07-04T06:08:00.418Z,100778.34
2023-07-04T06:09:04.673Z,100775.53
2023-07-04T06:10:07.431Z,100766.69
2023-07-04T06:11:10.405Z,100779.28
2023-07-04T06:12:12.067Z,100780.16
2023-07-04T06:13:13.754Z,100770.16
2023-07-04T06:14:17.250Z,100778.34
2023-07-04T06:15:18.864Z,100776.56
2023-07-04T06:16:20.825Z,100788.84
2023-07-04T06:17:22.669Z,100780.78
2023-07-04T06:18:24.640Z,100786.28
2023-07-04T06:19:26.516Z,100800.63
2023-07-04T06:20:28.179Z,100793.41
2023-07-04T06:21:42.500Z,100803.13
2023-07-04T06:22:45.913Z,100797.84
2023-07-04T06:23:49.115Z,100795.22
2023-07-04T06:24:51.892Z,100792.66
2023-07-04T06:25:56.801Z,100787.25
2023-07-04T06:26:58.537Z,100797.78
2023-07-04T06:28:00.939Z,100792.59
2023-07-04T06:29:02.800Z,100797.84
2023-07-04T06:30:05.121Z,100797.03
2023-07-04T06:31:15.461Z,100798.63
2023-07-04T06:32:17.136Z,100790.38
2023-07-04T06:33:18.756Z,100799.09
2023-07-04T06:34:20.570Z,100801.66
2023-07-04T06:35:22.259Z,100799.53
2023-07-04T06:36:24.386Z,100801.72
2023-07-04T06:37:26.042Z,100793.53
2023-07-04T06:38:28.213Z,100802.38
2023-07-04T06:39:31.229Z,100808.59
2023-07-04T06:40:33.064Z,100809.81
2023-07-04T06:41:34.771Z,100809.69
2023-07-04T06:42:36.491Z,100809.59
2023-07-04T06:43:40.825Z,100800.78
2023-07-04T06:44:44.898Z,100802.50
2023-07-04T06:45:46.611Z,100805.78
2023-07-04T06:46:48.265Z,100803.09
2023-07-04T06:47:49.957Z,100812.88
2023-07-04T06:48:52.295Z,100813.72
2023-07-04T06:49:54.151Z,100805.56
2023-07-04T06:50:57.160Z,100806.34
2023-07-04T06:51:58.943Z,100817.06
2023-07-04T06:53:00.788Z,100808.91
2023-07-04T06:54:02.525Z,100813.34
2023-07-04T06:55:07.332Z,100808.84
2023-07-04T06:56:11.465Z,100819.22
2023-07-04T06:57:13.177Z,100827.38
2023-07-04T06:58:14.776Z,100820.19
2023-07-04T06:59:16.543Z,100820.91
2023-07-04T07:00:20.175Z,100809.28
2023-07-04T07:01:22.976Z,100817.81
2023-07-04T07:02:24.758Z,100818.66
2023-07-04T07:03:26.716Z,100822.16
2023-07-04T07:04:28.595Z,100829.00
2023-07-04T07:05:30.176Z,100823.78
2023-07-04T07:06:33.260Z,100833.50
2023-07-04T07:07:35.011Z,100832.81
2023-07-04T07:08:37.663Z,100829.16
2023-07-04T07:09:40.885Z,100820.41
2023-07-04T07:10:54.204Z,100820.41
2023-07-04T07:11:56.017Z,100833.84
2023-07-04T07:12:57.692Z,100837.97
2023-07-04T07:13:59.563Z,100839.56
2023-07-04T07:15:01.181Z,100824.31
2023-07-04T07:16:08.687Z,100830.44
2023-07-04T07:17:10.527Z,100830.44
2023-07-04T07:18:12.373Z,100824.34
2023-07-04T07:19:16.405Z,100823.34
2023-07-04T07:20:18.182Z,100833.00
2023-07-04T07:21:22.787Z,100827.50
2023-07-04T07:22:24.535Z,100833.88
2023-07-04T07:23:26.487Z,100831.31
2023-07-04T07:24:29.476Z,100837.59
2023-07-04T07:25:31.204Z,100833.88
2023-07-04T07:26:38.612Z,100840.06
2023-07-04T07:27:40.473Z,100835.69
2023-07-04T07:28:42.019Z,100848.16
2023-07-04T07:29:45.418Z,100835.53
2023-07-04T07:30:47.741Z,100841.03
2023-07-04T07:31:49.678Z,100837.44
2023-07-04T07:32:51.498Z,100845.53
2023-07-04T07:33:53.996Z,100836.66
2023-07-04T07:34:56.057Z,100835.59
2023-07-04T07:35:57.923Z,100828.13
2023-07-04T07:36:59.671Z,100832.34
2023-07-04T07:38:04.154Z,100833.72
2023-07-04T07:39:07.239Z,100828.09
2023-07-04T07:40:10.349Z,100827.88
2023-07-04T07:41:12.283Z,100834.63
2023-07-04T07:42:15.348Z,100829.66
2023-07-04T07:43:17.034Z,100831.78
2023-07-04T07:44:21.487Z,100833.38
2023-07-04T07:45:23.879Z,100824.34
2023-07-04T07:46:25.824Z,100834.09
2023-07-04T07:47:27.570Z,100840.19
2023-07-04T07:48:29.450Z,100824.34
2023-07-04T07:49:31.267Z,100835.47
2023-07-04T07:50:32.895Z,100846.84
2023-07-04T07:51:35.210Z,100840.88
2023-07-04T07:52:36.971Z,100830.38
2023-07-04T07:53:40.644Z,100832.28
2023-07-04T07:54:42.165Z,100841.28
2023-07-04T07:55:43.855Z,100833.75
2023-07-04T07:56:47.021Z,100842.25
2023-07-04T07:57:50.014Z,100836.84
2023-07-04T07:58:52.040Z,100842.47
2023-07-04T07:59:53.693Z,100845.53
2023-07-04T08:00:55.702Z,100834.22
2023-07-04T08:01:57.537Z,100842.56
2023-07-04T08:02:59.170Z,100841.63
2023-07-04T08:04:01.980Z,100847.91
2023-07-04T08:05:03.977Z,100847.88
2023-07-04T08:06:05.969Z,100850.50
2023-07-04T08:07:08.469Z,100835.53
2023-07-04T08:08:10.789Z,100841.75
2023-07-04T08:09:15.185Z,100849.44
2023-07-04T08:10:17.592Z,100845.47
2023-07-04T08:11:19.641Z,100844.88
2023-07-04T08:12:21.236Z,100844.50
2023-07-04T08:13:24.834Z,100851.91
2023-07-04T08:14:29.799Z,100847.97
2023-07-04T08:15:31.625Z,100841.47
2023-07-04T08:16:42.477Z,100843.72
2023-07-04T08:17:46.227Z,100841.91
2023-07-04T08:18:48.489Z,100847.16
2023-07-04T08:19:50.098Z,100850.22
2023-07-04T08:20:58.131Z,100850.09
2023-07-04T08:22:02.065Z,100852.97
2023-07-04T08:23:04.054Z,100851.06
2023-07-04T08:24:05.843Z,100857.91
2023-07-04T08:25:08.075Z,100853.34
2023-07-04T08:26:15.658Z,100849.41
2023-07-04T08:27:17.380Z,100853.56
2023-07-04T08:28:19.267Z,100845.94
2023-07-04T08:29:22.317Z,100842.81
2023-07-04T08:30:25.033Z,100850.63
2023-07-04T08:31:26.653Z,100858.22
2023-07-04T08:32:28.363Z,100857.50
2023-07-04T08:33:30.155Z,100863.31
2023-07-04T08:34:31.731Z,100858.66
2023-07-04T08:35:33.639Z,100855.88
2023-07-04T08:36:41.604Z,100858.44
2023-07-04T08:37:43.298Z,100853.00
2023-07-04T08:38:48.010Z,100853.00
2023-07-04T08:39:49.708Z,100856.97
2023-07-04T08:40:52.304Z,100839.19
2023-07-04T08:41:58.290Z,100853.22
2023-07-04T08:43:05.680Z,100841.81
2023-07-04T08:44:14.852Z,100846.88
2023-07-04T08:45:23.863Z,100854.19
2023-07-04T08:46:26.035Z,100853.31
2023-07-04T08:47:29.107Z,100846.56
2023-07-04T08:48:31.345Z,100852.66
2023-07-04T08:49:38.813Z,100854.66
2023-07-04T08:50:41.504Z,100860.19
2023-07-04T08:51:58.437Z,100859.28
2023-07-04T08:53:05.027Z,100866.56
2023-07-04T08:54:11.481Z,100860.19
2023-07-04T08:55:15.757Z,100855.69
2023-07-04T08:56:28.757Z,100854.53
2023-07-04T08:57:39.442Z,100864.53
2023-07-04T08:58:50.173Z,100863.09
2023-07-04T08:59:57.414Z,100853.88
2023-07-04T09:01:04.159Z,100859.97
2023-07-04T09:02:23.439Z,100863.25
2023-07-04T09:03:31.900Z,100860.66
2023-07-04T09:04:42.516Z,100852.56
2023-07-04T09:05:54.684Z,100850.69
2023-07-04T09:07:06.049Z,100862.72
2023-07-04T09:08:15.304Z,100856.53
2023-07-04T09:09:24.253Z,100849.09
2023-07-04T09:10:33.364Z,100871.63
2023-07-04T09:11:35.058Z,100861.41
2023-07-04T09:12:40.834Z,100861.88
2023-07-04T09:13:45.069Z,100863.44
2023-07-04T09:14:54.602Z,100859.00
2023-07-04T09:15:58.936Z,100863.22
2023-07-04T09:17:04.455Z,100859.78
2023-07-04T09:18:22.887Z,100857.53
2023-07-04T09:19:25.197Z,100852.50
2023-07-04T09:20:30.729Z,100859.44
2023-07-04T09:21:33.686Z,100867.19
2023-07-04T09:22:35.887Z,100862.72
2023-07-04T09:23:41.241Z,100862.63
2023-07-04T09:24:44.174Z,100848.28
2023-07-04T09:25:46.274Z,100854.44
2023-07-04T09:26:49.819Z,100850.28
2023-07-04T09:27:51.798Z,100854.72
2023-07-04T09:28:55.909Z,100854.38
2023-07-04T09:29:57.993Z,100862.69
2023-07-04T09:31:00.557Z,100857.84
2023-07-04T09:32:04.162Z,100868.25
2023-07-04T09:33:05.896Z,100862.63
2023-07-04T09:34:12.600Z,100862.56
2023-07-04T09:35:16.783Z,100867.28
2023-07-04T09:36:20.034Z,100864.38
2023-07-04T09:37:25.301Z,100868.81
2023-07-04T09:38:27.280Z,100860.94
2023-07-04T09:39:54.945Z,100872.25
2023-07-04T09:40:57.818Z,100859.47
2023-07-04T09:43:13.003Z,100866.22
2023-07-04T09:44:17.182Z,100862.28
2023-07-04T09:45:22.257Z,100862.19
2023-07-04T09:46:26.379Z,100868.06
2023-07-04T09:47:30.396Z,100872.56
2023-07-04T09:48:32.222Z,100874.69
2023-07-04T09:49:35.168Z,100870.47
2023-07-04T09:50:37.531Z,100877.09
2023-07-04T09:51:39.272Z,100872.66
2023-07-04T09:52:41.346Z,100890.97
2023-07-04T09:53:43.001Z,100883.19
2023-07-04T09:54:45.764Z,100881.81
2023-07-04T09:55:59.331Z,100875.16
2023-07-04T09:57:19.455Z,100884.63
2023-07-04T09:58:23.266Z,100870.38
2023-07-04T09:59:26.689Z,100880.75
2023-07-04T10:00:28.277Z,100879.88
2023-07-04T10:01:30.690Z,100869.63
2023-07-04T10:02:35.636Z,100869.16
2023-07-04T10:03:38.414Z,100882.03
2023-07-04T10:04:40.640Z,100874.72
2023-07-04T10:05:42.493Z,100869.41
2023-07-04T10:06:45.004Z,100873.91
2023-07-04T10:08:00.051Z,100869.97
2023-07-04T10:09:05.294Z,100872.75
2023-07-04T10:10:13.437Z,100868.59
2023-07-04T10:11:25.336Z,100884.44
2023-07-04T10:12:33.391Z,100877.88
2023-07-04T10:13:39.705Z,100872.44
2023-07-04T10:14:46.243Z,100872.59
2023-07-04T10:15:50.138Z,100883.22
2023-07-04T10:16:52.212Z,100873.16
2023-07-04T10:17:55.302Z,100870.34
2023-07-04T10:19:10.863Z,100876.97
2023-07-04T10:20:14.584Z,100887.09
2023-07-04T10:21:17.178Z,100885.84
2023-07-04T10:22:24.942Z,100871.44
2023-07-04T10:23:28.660Z,100887.78
2023-07-04T10:24:32.053Z,100884.69
2023-07-04T10:25:34.424Z,100875.09
2023-07-04T10:26:36.758Z,100882.75
2023-07-04T10:27:41.450Z,100891.63
2023-07-04T10:28:44.248Z,100877.97
2023-07-04T10:29:49.771Z,100877.47
2023-07-04T10:30:54.444Z,100869.63
2023-07-04T10:32:00.353Z,100872.13
2023-07-04T10:33:08.544Z,100871.03
2023-07-04T10:34:15.609Z,100885.31
2023-07-04T10:35:22.261Z,100870.00
2023-07-04T10:36:28.544Z,100876.28
2023-07-04T10:37:34.916Z,100872.63
2023-07-04T10:38:43.142Z,100882.16
2023-07-04T10:39:45.121Z,100891.03
2023-07-04T10:40:46.803Z,100882.44
2023-07-04T10:41:55.192Z,100886.16
2023-07-04T10:43:01.048Z,100888.88
2023-07-04T10:44:05.173Z,100880.16
2023-07-04T10:45:12.999Z,100879.94
2023-07-04T10:46:22.343Z,100885.03
2023-07-04T10:47:27.218Z,100879.94
2023-07-04T10:48:33.836Z,100877.69
2023-07-04T10:49:42.679Z,100876.47
2023-07-04T10:50:49.845Z,100884.88
2023-07-04T10:51:57.348Z,100873.72
2023-07-04T10:52:59.147Z,100870.34
2023-07-04T10:54:00.870Z,100867.59
2023-07-04T10:55:04.223Z,100873.34
2023-07-04T10:56:10.357Z,100867.34
2023-07-04T10:57:35.004Z,100865.66
2023-07-04T10:58:42.878Z,100869.53
2023-07-04T10:59:46.519Z,100870.16
2023-07-04T11:00:52.515Z,100874.03
2023-07-04T11:01:59.691Z,100881.75
2023-07-04T11:03:05.795Z,100873.47
2023-07-04T11:04:12.943Z,100873.25
2023-07-04T11:05:21.001Z,100879.06
2023-07-04T11:06:35.182Z,100880.34
2023-07-04T11:07:39.349Z,100874.91
2023-07-04T11:08:42.246Z,100875.63
2023-07-04T11:09:44.061Z,100887.03
2023-07-04T11:10:50.991Z,100875.63
2023-07-04T11:11:52.965Z,100872.38
2023-07-04T11:12:56.535Z,100878.78
2023-07-04T11:14:01.273Z,100871.44
2023-07-04T11:15:05.717Z,100872.06
2023-07-04T11:16:09.100Z,100877.22
2023-07-04T11:17:13.870Z,100878.44
2023-07-04T11:18:17.029Z,100875.47
2023-07-04T11:19:23.022Z,100874.31
2023-07-04T11:20:30.090Z,100867.25
2023-07-04T11:21:32.981Z,100874.00
2023-07-04T11:22:48.127Z,100878.91
2023-07-04T11:24:08.845Z,100871.97
2023-07-04T11:25:33.467Z,100880.03
2023-07-04T11:26:50.105Z,100887.00
2023-07-04T11:28:13.955Z,100879.88
2023-07-04T11:29:17.965Z,100876.28
2023-07-04T11:30:36.363Z,100879.66
2023-07-04T11:32:10.561Z,100873.66
2023-07-04T11:33:35.466Z,100884.06
2023-07-04T11:34:47.358Z,100880.31
2023-07-04T11:35:52.049Z,100877.91
2023-07-04T11:36:57.050Z,100878.72
2023-07-04T11:38:06.090Z,100884.06
2023-07-04T11:39:26.925Z,100878.84
2023-07-04T11:40:32.576Z,100875.34
2023-07-04T11:41:39.127Z,100879.78
2023-07-04T11:42:43.772Z,100868.09
2023-07-04T11:43:47.713Z,100878.53
2023-07-04T11:44:59.268Z,100878.59
2023-07-04T11:46:04.273Z,100870.78
2023-07-04T11:47:10.417Z,100862.84
2023-07-04T11:48:16.472Z,100866.03
2023-07-04T11:49:21.085Z,100875.47
2023-07-04T11:50:34.533Z,100867.34
2023-07-04T11:51:38.413Z,100867.78
2023-07-04T11:52:43.645Z,100871.09
2023-07-04T11:53:48.547Z,100869.97
2023-07-04T11:54:57.895Z,100868.59
2023-07-04T11:56:14.774Z,100864.41
2023-07-04T11:57:21.205Z,100861.75
2023-07-04T11:58:23.254Z,100860.72
2023-07-04T11:59:30.020Z,100860.16
2023-07-04T12:00:57.446Z,100857.53
2023-07-04T12:02:17.684Z,100875.56
2023-07-04T12:03:59.369Z,100870.34
2023-07-04T12:05:02.403Z,100862.75
2023-07-04T12:06:06.521Z,100864.00
2023-07-04T12:07:11.195Z,100872.06
2023-07-04T12:08:17.430Z,100869.88
2023-07-04T12:09:39.777Z,100862.94
2023-07-04T12:10:43.073Z,100865.97
2023-07-04T12:11:50.387Z,100863.50